Terminal Aerodrome Forecast
Issued by NWS

Home | Current Version | Previous Version | Graphics & Text | Print | Product List | Glossary On
Versions: 1 2 3 4 5 6 7 8 9 10 11 12 13 14 15 16 17 18 19
000
FTUS43 KABR 251636 AAB
TAFMBG
TAF AMD
KMBG 251636Z 2517/2612 16011KT P6SM BKN005
     FM251800 16013KT P6SM SCT100
     FM260000 13008KT P6SM SCT200
     FM261100 VRB04KT P6SM OVC030=

USA.gov is the U.S. government's official web portal to all federal, state and local government web resources and services.